Aérodrome :
LOGIN :

S'inscrire | Disclaimer

   EN    FR    IT 

 










Légende :    VFR   VFR Marginal   IFR   IFR Intensif   IFR Très Intensif
Visi : 
Plafond : 
>= 8 km
>= 3000ft
5 à 8 km
1000 à 3000 ft
1500m à 5 km
500 à 1000 ft
800 à 1500m
200 à 500 ft
< 800m
< 200 ft
Symboles :   Orages  Brouillard  Fortes neiges  Fortes précipitations  Vent > 20 kt
SIGMETs :   Divers  Orages  Givrage  Turbulence  Onde Orograph.  Cendres Volcan.







- Altitude de l'aérodrome : 1411 ft
- Code IATA : SZG


LOWS - Salzburg

DERNIER METAR :
  • 221150Z 35006KT 310V020 9999 FEW060 BKN300 23/12 Q1012 NOSIG

METARs EXPIRÉS :
  • 221120Z 34007KT 300V360 9999 FEW060 BKN300 24/12 Q1012 NOSIG
  • 221050Z 35008KT 290V050 9999 FEW060 BKN300 24/12 Q1012 NOSIG
  • 221020Z 33007KT 290V360 9999 FEW060 SCT300 23/11 Q1012 NOSIG
  • 220950Z 33005KT 270V010 9999 FEW060 SCT300 22/11 Q1012 NOSIG
  • 220920Z 32003KT 240V040 9999 FEW060 SCT300 21/12 Q1012 NOSIG

TAF TAF LOWS
Valide du 22 à 12h jusqu'au 23 à 12h UTC


221115Z 2212/2312 34005KT 9999 FEW060 SCT300 TX24/2213Z TN13/2304Z
PROB30
TEMPO 2212/2217 02010KT -SHRA SCT050 FEW060TCU
BECMG 2217/2219 15005KT CAVOK
BECMG 2308/2310 01006KT 9999 FEW050 BKN300
Pas de NOTAMs connus pour ce terrain.



MET'MAP, la Météo Aéronautique d'un coup d'oeil ! - Copyright ORBIFLY Décembre 2007 - Disclaimer

ORBIFLY MET'MAP TEAM :

Programmation & Développement : Alexandra Zaïnal
Conception & Développement : Baudouin d'Aumeries
Co-Programmation & Développement : Marc-Olivier Méhu
Soutien technique & logistique : Manuel Goepfert

Contact : metmap@orbifly.com




SOURCES & CREDITS :

   NOAA